653  
UXUS97 KREV 131438  
SRGREV  
 
SOARING FORECAST  
NATIONAL WEATHER SERVICE - RENO NV  
700 AM PST FRI DEC 13 2019  
 
THIS SOARING FORECAST IS FOR THE EASTERN SIERRA AND WESTERN NEVADA  
WITH SPECIFIC INDICES FOR THE GREATER RENO AREA.  
 
THIS FORECAST IS PREPARED DAILY BY 700 AM AND IS NOT UPDATED.  
 
FOR CURRENT FLIGHT CONDITIONS...FORECASTS...AND ADVISORIES...ACCESS  
YOUR LOCAL BRIEFING OUTLET OR FLIGHT SERVICE STATION.  
 
*******************************************************************  
FORECASTED LOCAL INDICES FOR RENO: TODAY YESTERDAY  
FORECASTED MAX TEMP AT RENO (DEG F)..... 51 58  
FORECASTED TRIGGER TEMPERATURE (DEG F).. 52 56  
EXCEEDED YESTERDAY BY 1055 AM PST  
FORECASTED MAXIMUM ALTITUDE (FT MSL).... 7500 7800  
FORECASTED SOARING INDEX (FPM).......... 165 234  
FORECASTED K-INDEX.........VALID 18Z.... 22 15  
FORECASTED K-INDEX.........VALID 00Z.... 24 22  
FORECASTED LIFTED INDEX....VALID 18Z.... 7 6  
FORECASTED LIFTED INDEX....VALID 00Z.... 7 7  
 
AFTERNOON WINDS ALOFT FORECAST  
MSL (FT) WIND/TEMP  
9000 2743/+00  
10000 2743/-01  
12000 2842/-05  
14000 2645/-08  
16000 2549/-12  
18000 2560/-16  
24000 2789/-26  
30000 7820/-41  
34000 7728/-49  
39000 7737/-53  
 
SLIDE MOUNTAIN DATA:  
DATE TIME TEMP DEWPT RH WIND (MPH)  
(F) (F) | DIR SPEED GUST  
2019-12-13 05:50 26 26 100 | 253 6 8  
2019-12-13 05:30 26 26 100 | 253 6 9  
2019-12-13 05:20 27 27 100 | 253 6 7  
2019-12-13 05:00 26 26 100 | 253 6 9  
 
SIERRA CREST 8700 FT DATA:  
DATE TIME TEMP RH WIND  
DIR SPEED GUST  
2019-12-13 0600 27 100 252 35 50  
2019-12-13 0545 27 100 257 40 55  
2019-12-13 0530 27 100 270 36 57  
2019-12-13 0515 28 100 227 35 50  
 
RENO TAF FORECAST:  
KRNO 131120Z 1312/1412 20010KT P6SM BKN060 OVC090 WS020/26035KT  
FM132000 26014G22KT P6SM VCSH SCT030 BKN045 OVC080  
FM140200 23011G18KT P6SM -RA BKN035 OVC050  
 
CARSON CITY TAF FORECAST:  
KCXP 131120Z 1312/1412 24006KT P6SM FEW050 BKN100 OVC180  
WS020/26035KT  
FM131900 25012G20KT P6SM VCSH SCT025 BKN040 OVC070  
FM140200 22011KT P6SM -RA BKN035 OVC050  
 
OUTLOOK FOR THE RENO-CARSON CITY-MINDEN AREA:   
SATURDAY
 
MOSTLY CLOUDY WITH A CHANCE OF SNOW AND RAIN. SNOW  
LEVEL 5000 FEET. HIGHS 40 TO 45. NORTHWEST WINDS 10 TO 15 MPH.  
 
SUNRISE AND SUNSET  
DECEMBER 9 2019......SUNRISE 708 AM PST SUNSET 435 PM PST  
DECEMBER 10 2019......SUNRISE 708 AM PST SUNSET 435 PM PST  
 
CLICK HERE TO GO TO PREVIOUS BULLETINS.

The Nexlab NV Page
The Nexlab CA Page Main Text Page